Airfield :
LOGIN :

Register | Disclaimer

   EN    FR    IT 

 










Legend :    VFR   Marginal VFR   IFR   Intensive IFR   Very Intensive IFR
Visi :
Ceiling :
>= 8 km
>= 3000ft
5 to 8 km
1000 to 3000 ft
1500m to 5 km
500 to 1000 ft
800 to 1500m
200 to 500 ft
< 800m
< 200 ft
Symbols :   Thunderstorms  Fog  Heavy snow  Heavy precipitations  Wind > 20 kt
SIGMETs :     Misc.  Thunderstorms  Icing  Turbulence  Mountain Waves  Volcanic Ashes






- Airport Elevation : 19 ft
- IATA code : LCY


EGLC - London City

CURRENT METAR :
  • 281150Z AUTO 20004G15KT 130V270 9999 NCD 12/07 Q1008

EXPIRED METARs :
  • 281120Z AUTO 09004KT 060V160 9999 NCD 11/08 Q1009
  • 281050Z AUTO VRB01KT 9999 SCT046 11/08 Q1009
  • 281020Z AUTO VRB03G14KT 9999 NCD 10/08 Q1008
  • 280950Z AUTO 23004KT 160V280 9999 NCD 10/08 Q1008
  • 280920Z AUTO VRB03KT 9999 NCD 09/07 Q1008

TAF TAF EGLC
Valid from the 28 at 12:00 until the 28 at 21:00 UTC


281105Z 2812/2821 19004KT 9999 SCT025
PROB30
TEMPO 2812/2821 BKN011
ATIS : +44 20 7646 0224



MET'MAP, your aeronautical weather chart ! - Copyright ORBIFLY December 2007 - Disclaimer

ORBIFLY MET'MAP TEAM :

Programming & Development : Alexandra Zaïnal
Original concept : Baudouin d'Aumeries
Technical & hardware support : Manuel Goepfert
Assistance : Marc-Olivier Méhu




SOURCES & CREDITS :

   NOAA